Time;durP1;ratioP1;P1;durP2;ratioP2;P2;SDS_P1;SDS_P2;PMS_P1;PMS_P2;Temp;Humidity;BMP_temperature;BMP_pressure;BME280_temperature;BME280_humidity;BME280_pressure;Samples;Min_cycle;Max_cycle;Signal;HPM_P1;HPM_P2
2023/04/07 03:03:51;;;;;;;;;;;;;;;;;;;;;
2023/04/07 03:07:38;;;;;;;175.38;41.53;;;7.30;99.90;;;;;;6215791;23;20066;-78
2023/04/07 03:14:10;;;;;;;236.02;44.88;;;7.20;99.90;;;;;;6148719;23;20193;-78
2023/04/07 03:43:47;;;;;;;244.38;45.35;;;7.30;99.90;;;;;;6247102;23;20025;-78
2023/04/07 03:46:57;;;;;;;;;;;;;;;;;;;;;
2023/04/07 03:53:19;;;;;;;;;;;;;;;;;;;;;
2023/04/07 03:56:41;;;;;;;185.80;40.53;;;7.30;99.90;;;;;;6186599;23;20020;-78
2023/04/07 03:59:53;;;;;;;;;;;;;;;;;;;;;
2023/04/07 04:02:44;;;;;;;199.45;41.75;;;7.30;99.90;;;;;;6213547;23;20044;-78
2023/04/07 04:05:31;;;;;;;239.95;45.58;;;7.40;99.90;;;;;;6191169;23;20135;-79
2023/04/07 04:12:48;;;;;;;;;;;;;;;;;;;;;
2023/04/07 04:15:50;;;;;;;;;;;;;;;;;;;;;
2023/04/07 04:19:12;;;;;;;210.60;41.90;;;7.40;99.90;;;;;;6153912;23;20485;-78
2023/04/07 04:22:45;;;;;;;188.85;40.67;;;7.40;99.90;;;;;;6091999;23;20042;-79
2023/04/07 04:26:03;;;;;;;;;;;;;;;;;;;;;
2023/04/07 04:40:18;;;;;;;185.57;41.65;;;7.40;99.90;;;;;;5855860;24;20025;-77
2023/04/07 04:48:46;;;;;;;;;;;7.40;99.90;;;;;;5152925;27;20426;-78
2023/04/07 04:55:25;;;;;;;182.25;40.55;;;7.30;99.90;;;;;;4987983;28;20556;-78
2023/04/07 05:10:00;;;;;;;154.25;36.67;;;7.40;99.90;;;;;;4931359;29;20046;-79
2023/04/07 05:13:21;;;;;;;145.88;36.63;;;7.30;99.90;;;;;;4915476;29;20091;-78
2023/04/07 05:16:35;;;;;;;152.65;37.10;;;7.30;99.90;;;;;;4932374;29;20130;-78
2023/04/07 05:23:34;;;;;;;;;;;;;;;;;;;;;
2023/04/07 05:45:54;;;;;;;122.80;34.72;;;7.30;99.90;;;;;;3307894;25;20582;-78
2023/04/07 05:49:13;;;;;;;;;;;;;;;;;;;;;
2023/04/07 05:59:42;;;;;;;;;;;;;;;;;;;;;
2023/04/07 06:02:08;;;;;;;105.68;31.60;;;7.30;99.90;;;;;;5077315;28;20050;-79
2023/04/07 06:05:02;;;;;;;111.53;32.97;;;7.30;99.90;;;;;;5078751;28;20032;-78
2023/04/07 06:07:28;;;;;;;109.00;31.65;;;7.30;99.90;;;;;;5061077;28;20040;-79
2023/04/07 06:09:54;;;;;;;105.15;31.23;;;7.30;99.90;;;;;;5061427;28;20433;-81
2023/04/07 06:12:20;;;;;;;97.43;30.35;;;7.30;99.90;;;;;;5078141;28;20483;-78
2023/04/07 06:14:51;;;;;;;112.10;32.40;;;7.40;99.90;;;;;;5078418;28;20081;-83
2023/04/07 06:17:17;;;;;;;97.47;30.02;;;7.40;99.90;;;;;;5078574;28;20050;-78
2023/04/07 06:19:43;;;;;;;72.47;26.38;;;7.40;99.90;;;;;;5078270;28;20118;-79
2023/04/07 06:22:08;;;;;;;91.72;28.48;;;7.30;99.90;;;;;;5078037;28;20081;-80
2023/04/07 06:24:34;;;;;;;69.88;26.00;;;7.40;99.90;;;;;;5077730;28;20032;-78
2023/04/07 06:27:00;;;;;;;67.78;26.05;;;7.30;99.90;;;;;;5078387;28;20045;-81
2023/04/07 06:29:26;;;;;;;70.45;26.15;;;7.30;99.90;;;;;;5077787;28;20047;-81
2023/04/07 06:31:52;;;;;;;68.78;25.70;;;7.40;99.90;;;;;;5060976;28;20395;-78
2023/04/07 06:34:17;;;;;;;67.30;25.40;;;7.30;99.90;;;;;;5077942;28;20078;-78
2023/04/07 06:36:43;;;;;;;65.60;25.25;;;7.30;99.90;;;;;;5077209;28;20054;-80
2023/04/07 06:39:08;;;;;;;61.35;24.88;;;7.40;99.90;;;;;;5077645;28;20044;-79
2023/04/07 06:41:35;;;;;;;71.65;26.60;;;7.30;99.90;;;;;;5077897;28;20043;-80
2023/04/07 06:44:01;;;;;;;83.80;28.75;;;7.30;99.90;;;;;;5061147;28;20048;-78
2023/04/07 06:46:26;;;;;;;73.60;28.42;;;7.40;99.90;;;;;;5077552;28;20398;-80
2023/04/07 06:48:52;;;;;;;72.60;28.30;;;7.40;99.90;;;;;;5077826;28;20043;-79
2023/04/07 06:51:17;;;;;;;70.13;28.45;;;7.40;99.90;;;;;;5077713;28;20123;-80
2023/04/07 06:53:43;;;;;;;77.72;30.45;;;7.40;99.90;;;;;;5077563;28;20119;-78
2023/04/07 06:56:10;;;;;;;83.70;30.13;;;7.40;99.90;;;;;;5094887;28;20040;-79
2023/04/07 06:58:37;;;;;;;77.05;30.10;;;7.40;99.90;;;;;;5077371;28;20051;-80
2023/04/07 07:01:04;;;;;;;84.55;31.08;;;7.40;99.90;;;;;;5076805;28;20039;-78
2023/04/07 07:03:30;;;;;;;83.68;31.02;;;7.40;99.90;;;;;;5076777;28;20494;-79
2023/04/07 07:06:00;;;;;;;82.53;30.13;;;7.40;99.90;;;;;;5059743;28;20244;-78
2023/04/07 07:08:26;;;;;;;79.82;30.17;;;7.40;99.90;;;;;;5075413;28;20105;-79
2023/04/07 07:10:52;;;;;;;80.03;30.92;;;7.40;99.90;;;;;;5076271;28;20044;-79
2023/04/07 07:13:19;;;;;;;91.28;32.58;;;7.40;99.90;;;;;;5059797;28;20047;-79
2023/04/07 07:15:45;;;;;;;97.65;33.22;;;7.40;99.90;;;;;;5076076;28;20051;-79
2023/04/07 07:18:11;;;;;;;86.53;33.83;;;7.40;99.90;;;;;;5076140;28;20044;-80
2023/04/07 07:20:37;;;;;;;85.90;33.40;;;7.40;99.90;;;;;;5076043;28;20058;-79
2023/04/07 07:23:03;;;;;;;91.30;32.90;;;7.40;99.90;;;;;;5094421;28;20040;-81
2023/04/07 07:25:29;;;;;;;87.03;32.00;;;7.40;99.90;;;;;;5076200;28;20093;-78
2023/04/07 07:27:54;;;;;;;89.13;33.28;;;7.50;99.90;;;;;;5059178;28;20043;-78
2023/04/07 07:30:21;;;;;;;89.82;32.28;;;7.40;99.90;;;;;;5094215;28;20123;-80
2023/04/07 07:32:47;;;;;;;71.60;29.25;;;7.40;99.90;;;;;;5077597;28;20040;-77
2023/04/07 07:35:13;;;;;;;79.47;31.40;;;7.40;99.90;;;;;;5095663;28;20032;-78
2023/04/07 07:37:39;;;;;;;79.88;31.60;;;7.50;99.90;;;;;;5077382;28;20046;-78
2023/04/07 07:40:05;;;;;;;70.35;27.58;;;7.50;99.90;;;;;;5075847;28;20044;-78
2023/04/07 07:42:30;;;;;;;83.05;30.95;;;7.50;99.90;;;;;;5075576;28;20043;-78
2023/04/07 07:44:57;;;;;;;80.93;30.40;;;7.50;99.90;;;;;;5075575;28;20148;-78
2023/04/07 07:47:22;;;;;;;65.70;27.42;;;7.60;99.90;;;;;;5075525;28;20068;-78
2023/04/07 07:49:48;;;;;;;68.38;28.48;;;7.70;99.90;;;;;;5093944;28;20082;-78
2023/04/07 07:52:14;;;;;;;72.22;29.38;;;7.60;99.90;;;;;;5093918;28;20119;-78
2023/04/07 07:54:40;;;;;;;65.53;28.60;;;7.70;99.90;;;;;;5075420;28;20043;-78
2023/04/07 07:57:05;;;;;;;63.15;27.52;;;7.70;99.90;;;;;;5075251;28;20062;-77
2023/04/07 07:59:31;;;;;;;59.83;26.13;;;7.80;99.90;;;;;;5092531;28;20055;-78
2023/04/07 08:01:57;;;;;;;55.10;25.40;;;7.80;99.90;;;;;;5059276;28;20040;-78
2023/04/07 08:04:23;;;;;;;51.03;23.80;;;7.90;99.90;;;;;;5058802;28;20070;-77
2023/04/07 08:06:50;;;;;;;56.58;26.05;;;7.90;99.90;;;;;;5094032;28;20051;-79
2023/04/07 08:09:17;;;;;;;46.42;22.73;;;8.00;99.90;;;;;;5059913;28;20048;-78
2023/04/07 08:11:43;;;;;;;53.35;23.83;;;8.00;99.90;;;;;;5059008;28;20085;-78
2023/04/07 08:14:08;;;;;;;49.28;23.30;;;8.00;99.90;;;;;;5093205;28;20032;-78
2023/04/07 08:16:34;;;;;;;54.40;24.00;;;8.00;99.90;;;;;;5075659;28;20040;-78
2023/04/07 08:19:00;;;;;;;53.70;24.38;;;7.90;99.90;;;;;;5058563;28;20078;-78
2023/04/07 08:21:26;;;;;;;53.58;22.98;;;7.90;99.90;;;;;;5058931;28;20118;-76
2023/04/07 08:23:54;;;;;;;48.30;21.38;;;8.00;99.90;;;;;;5058774;28;20044;-77
2023/04/07 08:26:20;;;;;;;41.40;18.75;;;8.00;99.90;;;;;;5058219;28;20038;-79
2023/04/07 08:28:46;;;;;;;40.58;19.48;;;7.90;99.90;;;;;;5058040;28;20135;-78
2023/04/07 08:31:12;;;;;;;46.38;21.33;;;7.90;99.90;;;;;;5093411;28;20040;-78
2023/04/07 08:33:37;;;;;;;45.60;20.35;;;7.90;99.90;;;;;;5075185;28;20387;-77
2023/04/07 08:36:03;;;;;;;44.28;19.92;;;8.00;99.90;;;;;;5074802;28;20560;-78
2023/04/07 08:38:30;;;;;;;45.97;20.40;;;7.90;99.90;;;;;;5074697;28;20050;-77
2023/04/07 08:41:38;;;;;;;47.92;22.52;;;7.90;99.90;;;;;;5076541;28;20495;-77
2023/04/07 08:44:05;;;;;;;49.90;24.25;;;7.90;99.90;;;;;;5060576;28;20117;-77
2023/04/07 08:46:32;;;;;;;58.45;25.70;;;8.00;99.90;;;;;;5074800;28;20036;-78
2023/04/07 08:48:59;;;;;;;60.78;26.48;;;8.00;99.90;;;;;;5075091;28;20040;-78
2023/04/07 08:51:30;;;;;;;57.90;26.70;;;8.00;99.90;;;;;;5074772;28;20040;-76
2023/04/07 08:54:05;;;;;;;59.63;26.63;;;8.00;99.90;;;;;;5074992;28;20391;-78
2023/04/07 08:56:36;;;;;;;65.18;28.70;;;8.00;99.90;;;;;;5075361;28;20047;-77
2023/04/07 08:59:04;;;;;;;60.38;26.80;;;8.00;99.90;;;;;;5074877;28;20040;-77
2023/04/07 09:01:31;;;;;;;59.78;26.98;;;8.10;99.90;;;;;;5074425;28;20044;-79
2023/04/07 09:03:57;;;;;;;56.35;26.73;;;8.10;99.90;;;;;;5074665;28;20129;-78
2023/04/07 09:06:23;;;;;;;55.25;25.38;;;8.10;99.90;;;;;;5074488;28;20549;-78
2023/04/07 09:08:49;;;;;;;52.03;26.20;;;8.20;99.90;;;;;;5074483;28;20044;-78
2023/04/07 09:11:15;;;;;;;50.00;25.05;;;8.20;99.90;;;;;;5074571;28;20051;-77
2023/04/07 09:13:40;;;;;;;44.95;24.50;;;8.20;99.90;;;;;;5057663;28;20068;-78
2023/04/07 09:16:06;;;;;;;47.38;25.40;;;8.20;99.90;;;;;;5074433;28;20044;-78
2023/04/07 09:18:32;;;;;;;54.80;27.23;;;8.20;99.90;;;;;;5074747;28;20044;-78
2023/04/07 09:21:03;;;;;;;56.05;28.98;;;8.30;99.90;;;;;;5074298;28;20040;-77
2023/04/07 09:23:37;;;;;;;55.38;27.92;;;8.40;99.90;;;;;;5057741;28;20518;-77
2023/04/07 09:26:27;;;;;;;52.38;27.60;;;8.40;99.90;;;;;;5092497;28;20044;-78
2023/04/07 09:28:53;;;;;;;55.05;28.20;;;8.50;99.90;;;;;;5092584;28;20051;-85
2023/04/07 09:31:20;;;;;;;55.28;29.25;;;8.50;99.90;;;;;;5075304;28;20063;-77
2023/04/07 09:33:47;;;;;;;55.17;29.50;;;8.60;99.90;;;;;;5061861;28;20139;-77
2023/04/07 09:36:13;;;;;;;51.35;27.80;;;8.60;99.90;;;;;;5078693;28;20096;-78
2023/04/07 09:38:40;;;;;;;50.85;27.90;;;8.70;99.90;;;;;;5096987;28;20028;-77
2023/04/07 09:41:16;;;;;;;47.97;27.90;;;8.60;99.90;;;;;;5096080;28;20047;-78
2023/04/07 09:43:45;;;;;;;44.35;25.83;;;8.60;99.90;;;;;;5062035;28;20044;-82
2023/04/07 09:46:17;;;;;;;48.03;27.75;;;8.60;99.90;;;;;;5061113;28;20040;-77
2023/04/07 09:48:44;;;;;;;39.90;24.55;;;8.60;99.90;;;;;;5078141;28;20464;-79
2023/04/07 09:51:15;;;;;;;42.42;25.05;;;8.70;99.90;;;;;;5077761;28;20487;-77
2023/04/07 09:53:48;;;;;;;44.72;29.20;;;8.70;99.90;;;;;;5095877;28;20392;-78
2023/04/07 09:56:21;;;;;;;36.80;23.40;;;8.80;99.90;;;;;;5096311;28;20046;-78
2023/04/07 09:58:47;;;;;;;43.67;29.67;;;8.80;99.90;;;;;;5077585;28;20043;-78
2023/04/07 10:01:18;;;;;;;36.35;23.60;;;8.90;99.90;;;;;;5096105;28;20117;-77
2023/04/07 10:03:45;;;;;;;36.28;24.20;;;8.90;99.90;;;;;;5097163;28;20371;-76
2023/04/07 10:06:12;;;;;;;34.47;22.27;;;8.90;99.90;;;;;;5078138;28;20046;-77
2023/04/07 10:08:40;;;;;;;32.20;20.60;;;9.10;99.90;;;;;;5096464;28;20071;-77
2023/04/07 10:11:06;;;;;;;34.13;21.98;;;9.10;99.90;;;;;;5096060;28;20379;-75
2023/04/07 10:13:34;;;;;;;34.40;21.30;;;9.20;99.90;;;;;;5077042;28;20036;-76
2023/04/07 10:16:03;;;;;;;28.77;20.15;;;9.20;99.90;;;;;;5095897;28;20115;-75
2023/04/07 10:18:30;;;;;;;27.25;18.88;;;9.20;99.90;;;;;;5077170;28;20047;-75
2023/04/07 10:20:59;;;;;;;26.90;18.02;;;9.20;99.90;;;;;;5077290;28;20079;-75
2023/04/07 10:23:33;;;;;;;27.98;18.52;;;9.30;99.90;;;;;;5095581;28;20046;-75
2023/04/07 10:25:59;;;;;;;22.08;15.73;;;9.40;99.90;;;;;;5077186;28;20399;-75
2023/04/07 10:28:27;;;;;;;21.40;15.60;;;9.30;99.90;;;;;;5077340;28;20125;-75
2023/04/07 10:30:54;;;;;;;22.67;15.55;;;9.30;99.90;;;;;;5077054;28;20079;-75
2023/04/07 10:33:47;;;;;;;18.77;13.90;;;9.30;99.90;;;;;;5095465;28;20044;-75
2023/04/07 10:36:13;;;;;;;20.27;14.20;;;9.30;99.90;;;;;;5077013;28;20522;-75
2023/04/07 10:38:40;;;;;;;19.85;13.85;;;9.20;99.90;;;;;;5076844;28;20059;-76
2023/04/07 10:41:45;;;;;;;19.52;14.00;;;9.30;99.90;;;;;;5077184;28;20106;-75
2023/04/07 10:44:37;;;;;;;18.98;14.00;;;9.40;99.90;;;;;;5076877;28;20046;-75
2023/04/07 10:47:06;;;;;;;19.52;13.73;;;9.50;99.90;;;;;;5076533;28;20054;-76
2023/04/07 10:49:33;;;;;;;17.05;12.88;;;9.60;99.90;;;;;;5094576;28;20075;-76
2023/04/07 10:52:11;;;;;;;18.08;13.30;;;9.70;99.90;;;;;;5093391;28;20044;-75
2023/04/07 10:54:37;;;;;;;19.42;14.02;;;9.70;99.90;;;;;;5095048;28;20128;-75
2023/04/07 10:57:10;;;;;;;19.75;14.18;;;9.80;99.90;;;;;;5094576;28;20546;-76
2023/04/07 10:59:39;;;;;;;21.88;14.35;;;9.80;99.90;;;;;;5094563;28;20046;-75
2023/04/07 11:02:13;;;;;;;18.80;13.40;;;9.80;99.90;;;;;;5094485;28;20036;-75
2023/04/07 11:04:41;;;;;;;17.80;13.17;;;9.90;99.90;;;;;;5093138;28;20442;-75
2023/04/07 11:07:07;;;;;;;17.98;13.23;;;10.00;99.90;;;;;;5093471;28;20712;-75
2023/04/07 11:09:33;;;;;;;16.88;13.27;;;10.00;99.90;;;;;;5093120;28;20120;-75
2023/04/07 11:11:59;;;;;;;17.17;13.15;;;10.10;99.90;;;;;;5094616;28;20111;-76
2023/04/07 11:14:26;;;;;;;19.02;13.85;;;10.20;99.90;;;;;;5094898;28;20036;-75
2023/04/07 11:16:52;;;;;;;20.90;13.90;;;10.20;99.90;;;;;;5092869;28;20048;-76
2023/04/07 11:19:18;;;;;;;16.80;12.75;;;10.30;99.90;;;;;;5092707;28;20046;-75
2023/04/07 11:21:44;;;;;;;21.05;14.10;;;10.30;99.90;;;;;;5094013;28;20043;-75
2023/04/07 11:24:10;;;;;;;17.40;13.07;;;10.40;99.90;;;;;;5094151;28;20040;-74
2023/04/07 11:26:40;;;;;;;17.92;13.25;;;10.50;99.90;;;;;;5092576;28;20036;-75
2023/04/07 11:29:06;;;;;;;17.30;12.52;;;10.50;99.90;;;;;;5093026;28;20106;-75
2023/04/07 11:31:33;;;;;;;17.77;12.50;;;10.60;99.90;;;;;;5093084;28;20084;-75
2023/04/07 11:34:06;;;;;;;18.65;12.85;;;10.60;99.90;;;;;;5093760;28;20040;-76
2023/04/07 11:36:34;;;;;;;17.23;12.98;;;10.60;99.90;;;;;;5094438;28;20079;-75
2023/04/07 11:39:01;;;;;;;18.60;14.07;;;10.60;99.90;;;;;;5093531;28;20587;-75
2023/04/07 11:41:31;;;;;;;19.73;14.73;;;10.60;99.90;;;;;;5093945;28;20172;-74
2023/04/07 11:44:11;;;;;;;20.17;15.52;;;10.60;99.90;;;;;;5093966;28;20433;-75
2023/04/07 11:46:53;;;;;;;19.77;15.57;;;10.50;99.90;;;;;;5093931;28;20555;-77
2023/04/07 11:49:19;;;;;;;21.50;16.15;;;10.50;99.90;;;;;;5094377;28;20055;-75
2023/04/07 11:51:45;;;;;;;18.95;14.43;;;10.60;99.90;;;;;;5093749;28;20032;-75
2023/04/07 11:54:11;;;;;;;15.63;11.32;;;10.70;99.90;;;;;;5092468;28;20048;-75
2023/04/07 11:56:45;;;;;;;13.35;9.15;;;10.70;99.90;;;;;;5093688;28;20047;-75
2023/04/07 11:59:21;;;;;;;16.63;11.00;;;10.50;99.90;;;;;;5093862;28;20044;-76
2023/04/07 12:01:49;;;;;;;15.15;11.52;;;10.60;99.90;;;;;;5092369;28;20039;-74
2023/04/07 12:04:16;;;;;;;15.55;11.55;;;10.70;99.90;;;;;;5094006;28;20194;-75
2023/04/07 12:06:42;;;;;;;15.15;11.70;;;10.90;99.90;;;;;;5092219;28;20040;-75
2023/04/07 12:09:23;;;;;;;16.48;11.00;;;10.90;99.90;;;;;;5092387;28;20375;-75
2023/04/07 12:11:49;;;;;;;15.75;11.57;;;11.00;99.90;;;;;;5092272;28;20436;-76
2023/04/07 12:14:15;;;;;;;15.27;12.15;;;11.00;99.90;;;;;;5093657;28;20124;-75
2023/04/07 12:16:41;;;;;;;15.30;11.73;;;10.80;99.90;;;;;;5093386;28;20079;-74
2023/04/07 12:19:07;;;;;;;15.60;11.88;;;10.80;99.90;;;;;;5093616;28;20044;-74
2023/04/07 12:21:32;;;;;;;16.58;12.40;;;10.90;99.90;;;;;;5091795;28;20138;-75
2023/04/07 12:23:58;;;;;;;16.40;12.90;;;10.80;99.90;;;;;;5092103;28;20044;-75
2023/04/07 12:26:24;;;;;;;19.38;13.02;;;10.80;99.90;;;;;;5093463;28;20523;-74
2023/04/07 12:28:50;;;;;;;14.38;11.50;;;10.70;99.90;;;;;;5092983;28;20157;-75
2023/04/07 12:31:15;;;;;;;14.13;11.18;;;10.70;99.90;;;;;;5092034;28;20028;-75
2023/04/07 12:33:41;;;;;;;15.15;12.07;;;10.60;99.90;;;;;;5092074;28;20480;-75
2023/04/07 12:36:07;;;;;;;16.63;13.15;;;10.70;99.90;;;;;;5091556;28;20113;-74
2023/04/07 12:38:32;;;;;;;15.07;11.90;;;10.70;99.90;;;;;;5093062;28;20125;-75
2023/04/07 12:41:02;;;;;;;16.52;13.15;;;10.60;99.90;;;;;;5091428;28;20526;-74
2023/04/07 12:43:29;;;;;;;16.05;12.65;;;10.50;99.90;;;;;;5092861;28;20146;-74
2023/04/07 12:45:55;;;;;;;17.70;13.30;;;10.40;99.90;;;;;;5091374;28;20040;-75
2023/04/07 12:48:20;;;;;;;17.73;13.63;;;10.40;99.90;;;;;;5093345;28;20036;-75
2023/04/07 12:50:46;;;;;;;16.48;13.23;;;10.50;99.90;;;;;;5091458;28;20036;-75
2023/04/07 12:53:12;;;;;;;16.73;13.10;;;10.50;99.90;;;;;;5092752;28;20043;-75
2023/04/07 12:55:37;;;;;;;17.05;12.88;;;10.60;99.90;;;;;;5093202;28;20035;-75
2023/04/07 12:58:03;;;;;;;16.67;12.32;;;10.70;99.90;;;;;;5093020;28;20170;-75
2023/04/07 13:00:30;;;;;;;14.10;10.63;;;10.80;99.90;;;;;;5092904;28;20444;-75
2023/04/07 13:02:56;;;;;;;14.98;10.85;;;10.80;99.90;;;;;;5091234;28;20050;-76
2023/04/07 13:05:22;;;;;;;14.48;11.07;;;10.90;99.90;;;;;;5092832;28;20032;-76
2023/04/07 13:07:48;;;;;;;12.68;10.00;;;10.90;99.90;;;;;;5095269;28;20043;-75
2023/04/07 13:10:14;;;;;;;13.13;9.82;;;10.90;99.90;;;;;;5096686;28;20040;-75
2023/04/07 13:12:41;;;;;;;12.32;9.10;;;11.00;99.90;;;;;;5095318;28;20487;-75
2023/04/07 13:15:07;;;;;;;11.90;8.50;;;11.00;99.90;;;;;;5095656;28;20048;-74
2023/04/07 13:17:35;;;;;;;11.02;8.25;;;11.00;99.90;;;;;;5095512;28;20176;-75
2023/04/07 13:20:05;;;;;;;10.70;7.88;;;10.90;99.90;;;;;;5095194;28;20044;-75
2023/04/07 13:22:31;;;;;;;12.52;7.90;;;10.90;99.90;;;;;;5095518;28;20044;-74
2023/04/07 13:24:57;;;;;;;11.77;7.57;;;10.80;99.90;;;;;;5095201;28;20062;-75
2023/04/07 13:27:22;;;;;;;11.65;7.93;;;10.80;99.90;;;;;;5096279;28;20040;-73
2023/04/07 13:29:48;;;;;;;12.18;8.27;;;10.80;99.90;;;;;;5096394;28;20476;-75
2023/04/07 13:32:14;;;;;;;11.07;7.70;;;10.80;99.90;;;;;;5094893;28;20046;-74
2023/04/07 13:34:40;;;;;;;10.57;7.80;;;10.70;99.90;;;;;;5096245;28;20036;-75
2023/04/07 13:37:06;;;;;;;11.95;8.07;;;10.70;99.90;;;;;;5095106;28;20051;-75
2023/04/07 13:39:32;;;;;;;10.98;8.13;;;10.70;99.90;;;;;;5096350;28;20044;-76
2023/04/07 13:41:58;;;;;;;13.57;9.82;;;10.60;99.90;;;;;;5094960;28;20097;-74
2023/04/07 13:44:26;;;;;;;11.98;8.52;;;10.60;99.90;;;;;;5094463;28;20479;-76
2023/04/07 13:46:52;;;;;;;14.18;8.98;;;10.50;99.90;;;;;;5094657;28;20040;-75
2023/04/07 13:49:18;;;;;;;12.32;8.73;;;10.50;99.90;;;;;;5094493;28;20044;-74
2023/04/07 13:51:43;;;;;;;12.07;8.30;;;10.60;99.90;;;;;;5095767;28;20043;-75
2023/04/07 13:54:09;;;;;;;13.88;8.10;;;10.60;99.90;;;;;;5091611;28;20036;-72
2023/04/07 13:56:37;;;;;;;10.82;7.57;;;10.50;99.90;;;;;;5103087;28;20116;-74
2023/04/07 13:59:06;;;;;;;11.68;8.20;;;10.50;99.90;;;;;;5088049;28;20082;-73
2023/04/07 14:01:34;;;;;;;10.68;7.55;;;10.50;99.90;;;;;;5088352;28;20035;-74
2023/04/07 14:04:02;;;;;;;11.45;7.68;;;10.50;99.90;;;;;;5083124;28;20067;-75
2023/04/07 14:06:28;;;;;;;11.23;7.45;;;10.50;99.90;;;;;;5077302;28;20376;-74
2023/04/07 14:08:54;;;;;;;10.68;7.38;;;10.50;99.90;;;;;;5095959;28;20046;-76
2023/04/07 14:11:23;;;;;;;11.48;7.88;;;10.50;99.90;;;;;;5095524;28;20519;-77
2023/04/07 14:13:50;;;;;;;10.80;7.57;;;10.50;99.90;;;;;;5077263;28;20036;-76
2023/04/07 14:16:16;;;;;;;11.32;7.32;;;10.50;99.90;;;;;;5077081;28;20089;-74
2023/04/07 14:18:43;;;;;;;10.70;7.57;;;10.50;99.90;;;;;;5095350;28;20095;-75
2023/04/07 14:21:08;;;;;;;9.73;6.85;;;10.50;99.90;;;;;;5095721;28;20064;-75
2023/04/07 14:23:34;;;;;;;12.93;7.25;;;10.50;99.90;;;;;;5095397;28;20055;-75
2023/04/07 14:26:00;;;;;;;10.00;7.07;;;10.50;99.90;;;;;;5077020;28;20092;-75
2023/04/07 14:28:27;;;;;;;10.30;7.32;;;10.60;99.90;;;;;;5060393;28;20119;-75
2023/04/07 14:30:56;;;;;;;9.48;6.90;;;10.60;99.90;;;;;;5077049;28;20050;-75
2023/04/07 14:33:22;;;;;;;12.88;7.45;;;10.60;99.90;;;;;;5095766;28;20086;-75
2023/04/07 14:35:48;;;;;;;9.32;6.30;;;10.60;99.90;;;;;;5060414;28;20075;-75
2023/04/07 14:38:14;;;;;;;10.30;7.15;;;10.60;99.90;;;;;;5095434;28;20055;-75
2023/04/07 14:40:40;;;;;;;10.27;6.45;;;10.70;99.90;;;;;;5077228;28;20376;-75
2023/04/07 14:43:06;;;;;;;9.13;6.63;;;10.70;99.90;;;;;;5077255;28;20119;-75
2023/04/07 14:45:33;;;;;;;9.35;6.43;;;10.70;99.90;;;;;;5094812;28;20044;-75
2023/04/07 14:47:59;;;;;;;9.57;6.63;;;10.70;99.90;;;;;;5095055;28;20044;-75
2023/04/07 14:50:24;;;;;;;8.45;5.72;;;10.60;99.90;;;;;;5076588;28;20032;-74
2023/04/07 14:52:50;;;;;;;8.18;6.20;;;10.60;99.90;;;;;;5095010;28;20068;-76
2023/04/07 14:55:17;;;;;;;9.07;6.47;;;10.50;99.90;;;;;;5076807;28;20039;-74
2023/04/07 14:57:42;;;;;;;8.15;6.25;;;10.60;99.90;;;;;;5095092;28;20044;-75
2023/04/07 15:00:08;;;;;;;9.73;6.82;;;10.60;99.90;;;;;;5076422;28;20062;-75
2023/04/07 15:02:35;;;;;;;8.75;6.53;;;10.60;99.90;;;;;;5094696;28;20040;-75
2023/04/07 15:05:01;;;;;;;9.02;6.32;;;10.60;99.90;;;;;;5077184;28;20047;-76
2023/04/07 15:07:27;;;;;;;8.88;6.43;;;10.70;99.90;;;;;;5076585;28;20502;-76
2023/04/07 15:09:52;;;;;;;8.85;6.28;;;10.70;99.90;;;;;;5076677;28;20036;-75
2023/04/07 15:12:18;;;;;;;9.55;6.43;;;10.70;99.90;;;;;;5076553;28;20040;-74
2023/04/07 15:14:47;;;;;;;10.70;6.45;;;10.70;99.90;;;;;;5076310;28;20040;-75
2023/04/07 15:17:13;;;;;;;8.68;6.47;;;10.80;99.90;;;;;;5076414;28;20089;-76
2023/04/07 15:19:38;;;;;;;10.10;6.75;;;10.80;99.90;;;;;;5094644;28;20514;-75
2023/04/07 15:22:04;;;;;;;9.82;7.05;;;10.80;99.90;;;;;;5095332;28;20036;-76
2023/04/07 15:24:29;;;;;;;8.55;6.20;;;10.80;99.90;;;;;;5094239;28;20475;-75
2023/04/07 15:26:55;;;;;;;9.38;6.45;;;10.80;99.90;;;;;;5075841;28;20043;-76
2023/04/07 15:29:21;;;;;;;11.85;8.68;;;10.80;99.90;;;;;;5075375;28;20043;-75
2023/04/07 15:31:46;;;;;;;10.88;7.43;;;10.80;99.90;;;;;;5094164;28;20069;-75
2023/04/07 15:34:12;;;;;;;8.38;6.18;;;10.80;99.90;;;;;;5076344;28;20036;-75
2023/04/07 15:36:39;;;;;;;10.85;7.57;;;10.80;99.90;;;;;;5075979;28;20097;-77
2023/04/07 15:39:05;;;;;;;9.63;7.25;;;10.70;99.90;;;;;;5075825;28;20044;-75
2023/04/07 15:41:32;;;;;;;9.25;6.72;;;10.70;99.90;;;;;;5094416;28;20044;-78
2023/04/07 15:44:02;;;;;;;10.93;7.05;;;10.80;99.90;;;;;;5094023;28;20058;-76
2023/04/07 15:46:28;;;;;;;10.07;7.00;;;10.80;99.90;;;;;;5075685;28;20062;-76
2023/04/07 15:48:53;;;;;;;8.82;6.63;;;10.80;99.90;;;;;;5094678;28;20047;-77
2023/04/07 15:51:19;;;;;;;9.48;6.70;;;10.90;99.90;;;;;;5075679;28;20040;-76
2023/04/07 15:53:45;;;;;;;10.13;7.60;;;10.90;99.90;;;;;;5094136;28;20043;-76
2023/04/07 15:56:11;;;;;;;9.73;6.72;;;10.90;99.90;;;;;;5075777;28;20044;-75
2023/04/07 15:58:37;;;;;;;10.32;7.32;;;10.90;99.90;;;;;;5075487;28;20089;-76
2023/04/07 16:01:03;;;;;;;10.18;7.43;;;10.90;99.90;;;;;;5075484;28;20047;-77
2023/04/07 16:03:30;;;;;;;10.00;7.75;;;10.90;99.90;;;;;;5075750;28;20048;-75
2023/04/07 16:05:57;;;;;;;10.20;7.10;;;10.90;99.90;;;;;;5058542;28;20096;-77
2023/04/07 16:08:23;;;;;;;10.07;7.25;;;10.90;99.90;;;;;;5093947;28;20051;-76
2023/04/07 16:10:49;;;;;;;9.27;7.20;;;11.00;99.90;;;;;;5093607;28;20039;-76
2023/04/07 16:13:14;;;;;;;10.80;7.60;;;10.90;99.90;;;;;;5075289;28;20091;-75
2023/04/07 16:15:40;;;;;;;10.35;6.85;;;11.00;99.90;;;;;;5075624;28;20052;-77
2023/04/07 16:18:09;;;;;;;9.77;7.22;;;11.00;99.90;;;;;;5093746;28;20443;-76
2023/04/07 16:20:35;;;;;;;10.23;7.22;;;11.00;99.90;;;;;;5075862;28;20058;-76
2023/04/07 16:23:01;;;;;;;9.88;7.07;;;11.00;99.90;;;;;;5074866;28;20044;-76
2023/04/07 16:25:27;;;;;;;10.80;7.88;;;11.00;99.90;;;;;;5074868;28;20044;-76
2023/04/07 16:27:52;;;;;;;10.70;8.15;;;11.00;99.90;;;;;;5093500;28;20051;-75
2023/04/07 16:30:19;;;;;;;10.38;7.00;;;11.00;99.90;;;;;;5074967;28;20044;-75
2023/04/07 16:32:45;;;;;;;9.80;7.32;;;11.10;99.90;;;;;;5074931;28;20089;-76
2023/04/07 16:35:12;;;;;;;9.85;7.30;;;11.20;99.90;;;;;;5076083;28;20055;-76
2023/04/07 16:37:40;;;;;;;11.52;7.72;;;11.30;99.90;;;;;;5074879;28;20036;-77
2023/04/07 16:40:07;;;;;;;10.13;7.97;;;11.30;99.90;;;;;;5075180;28;20567;-78
2023/04/07 16:42:33;;;;;;;10.40;6.80;;;11.30;99.90;;;;;;5075257;28;20395;-77
2023/04/07 16:45:02;;;;;;;9.90;7.18;;;11.40;99.90;;;;;;5092894;28;20043;-75
2023/04/07 16:47:29;;;;;;;10.40;7.38;;;11.40;99.90;;;;;;5093394;28;20043;-80
2023/04/07 16:49:55;;;;;;;11.25;7.07;;;11.40;99.90;;;;;;5093027;28;20383;-76
2023/04/07 16:52:22;;;;;;;8.65;6.75;;;11.40;99.90;;;;;;5074531;28;20078;-76
2023/04/07 16:54:47;;;;;;;9.98;7.10;;;11.40;99.90;;;;;;5075522;28;20047;-77
2023/04/07 16:57:13;;;;;;;10.27;7.25;;;11.40;99.90;;;;;;5075310;28;20422;-76
2023/04/07 16:59:39;;;;;;;10.05;7.55;;;11.40;99.90;;;;;;5074992;28;20059;-78
2023/04/07 17:02:07;;;;;;;13.35;7.35;;;11.40;99.90;;;;;;5074969;28;20059;-77
2023/04/07 17:04:33;;;;;;;9.18;6.85;;;11.50;99.90;;;;;;5093354;28;20044;-76
2023/04/07 17:06:58;;;;;;;8.82;6.75;;;11.60;99.90;;;;;;5093332;28;20116;-75
2023/04/07 17:09:24;;;;;;;10.73;6.72;;;11.60;99.90;;;;;;5075575;28;20434;-78
2023/04/07 17:11:50;;;;;;;9.30;6.72;;;11.60;99.90;;;;;;5075753;28;20499;-76
2023/04/07 17:14:15;;;;;;;11.10;7.65;;;11.60;99.90;;;;;;5075288;28;20036;-76
2023/04/07 17:16:41;;;;;;;8.88;6.57;;;11.50;99.90;;;;;;5074924;28;20062;-77
2023/04/07 17:19:07;;;;;;;9.23;6.80;;;11.50;99.90;;;;;;5074750;28;20044;-76
2023/04/07 17:21:32;;;;;;;8.88;6.78;;;11.40;99.90;;;;;;5092793;28;20040;-78
2023/04/07 17:23:58;;;;;;;10.18;7.32;;;11.40;99.90;;;;;;5093167;28;20032;-76
2023/04/07 17:26:25;;;;;;;10.18;7.90;;;11.30;99.90;;;;;;5074549;28;20502;-77
2023/04/07 17:28:50;;;;;;;9.80;7.75;;;11.30;99.90;;;;;;5074847;28;20117;-78
2023/04/07 17:31:16;;;;;;;9.68;7.40;;;11.30;99.90;;;;;;5093000;28;20036;-76
2023/04/07 17:33:42;;;;;;;9.20;7.00;;;11.20;99.90;;;;;;5057967;28;20071;-76
2023/04/07 17:36:07;;;;;;;12.93;7.40;;;11.10;99.90;;;;;;5074447;28;20530;-76
2023/04/07 17:38:33;;;;;;;9.05;7.05;;;11.10;99.90;;;;;;5074823;28;20052;-75
2023/04/07 17:41:00;;;;;;;9.77;7.28;;;11.10;99.90;;;;;;5074781;28;20054;-78
2023/04/07 17:43:27;;;;;;;10.05;7.20;;;11.10;99.90;;;;;;5074916;28;20121;-76
2023/04/07 17:45:53;;;;;;;10.77;7.60;;;11.00;99.90;;;;;;5092577;28;20032;-77
2023/04/07 17:48:19;;;;;;;10.35;7.07;;;10.90;99.90;;;;;;5092846;28;20040;-75